createdAt,value
2019-06-25T00:01:27.578Z,77500.42
2019-06-25T00:03:53.763Z,77497.42
2019-06-25T00:06:19.689Z,77497.42
2019-06-25T00:08:45.686Z,77501.42
2019-06-25T00:11:11.556Z,77504.42
2019-06-25T00:13:37.430Z,77505.42
2019-06-25T00:16:03.607Z,77502.42
2019-06-25T00:18:32.354Z,77500.42
2019-06-25T00:20:58.543Z,77500.42
2019-06-25T00:23:24.545Z,77501.42
2019-06-25T00:25:50.430Z,77496.42
2019-06-25T00:28:16.298Z,77500.42
2019-06-25T00:30:42.327Z,77501.42
2019-06-25T00:33:08.196Z,77495.41
2019-06-25T00:35:34.065Z,77497.42
2019-06-25T00:37:59.947Z,77497.42
2019-06-25T00:40:25.840Z,77495.41
2019-06-25T00:42:51.705Z,77497.42
2019-06-25T00:45:17.578Z,77497.42
2019-06-25T00:47:43.437Z,77497.42
2019-06-25T00:50:09.599Z,77490.41
2019-06-25T00:52:35.480Z,77494.41
2019-06-25T00:55:01.567Z,77490.41
2019-06-25T00:57:27.476Z,77485.41
2019-06-25T00:59:53.612Z,77493.41
2019-06-25T01:02:27.335Z,77483.41
2019-06-25T01:04:53.197Z,77489.41
2019-06-25T01:07:19.330Z,77484.41
2019-06-25T01:09:45.210Z,77483.41
2019-06-25T01:12:11.086Z,77480.40
2019-06-25T01:14:36.986Z,77483.41
2019-06-25T01:17:02.943Z,77482.41
2019-06-25T01:19:28.810Z,77479.40
2019-06-25T01:21:57.752Z,77481.40
2019-06-25T01:24:23.627Z,77481.40
2019-06-25T01:26:51.277Z,77478.40
2019-06-25T01:29:17.174Z,77479.40
2019-06-25T01:31:43.045Z,77481.40
2019-06-25T01:34:08.906Z,77479.40
2019-06-25T01:36:34.782Z,77479.40
2019-06-25T01:39:00.664Z,77476.39
2019-06-25T01:41:26.555Z,77480.40
2019-06-25T01:43:52.441Z,77482.41
2019-06-25T01:46:18.293Z,77483.41
2019-06-25T01:48:44.174Z,77478.40
2019-06-25T01:51:10.040Z,77485.41
2019-06-25T01:53:35.961Z,77477.39
2019-06-25T01:56:01.803Z,77475.39
2019-06-25T01:58:27.680Z,77478.40
2019-06-25T02:00:53.550Z,77475.39
2019-06-25T02:03:19.727Z,77481.40
2019-06-25T02:05:45.615Z,77477.39
2019-06-25T02:08:11.748Z,77477.39
2019-06-25T02:10:37.637Z,77480.40
2019-06-25T02:13:03.530Z,77479.40
2019-06-25T02:15:29.732Z,77478.40
2019-06-25T02:17:55.949Z,77477.39
2019-06-25T02:20:21.865Z,77479.40
2019-06-25T02:22:47.733Z,77477.39
2019-06-25T02:25:13.607Z,77477.39
2019-06-25T02:27:39.836Z,77474.39
2019-06-25T02:30:09.116Z,77473.39
2019-06-25T02:32:35.033Z,77479.40
2019-06-25T02:35:00.994Z,77473.39
2019-06-25T02:37:26.909Z,77476.39
2019-06-25T02:39:52.802Z,77475.39
2019-06-25T02:42:18.720Z,77469.39
2019-06-25T02:44:44.597Z,77469.39
2019-06-25T02:47:10.486Z,77471.39
2019-06-25T02:49:36.420Z,77467.39
2019-06-25T02:52:02.381Z,77463.38
2019-06-25T02:54:28.264Z,77464.38
2019-06-25T02:56:56.786Z,77465.38
2019-06-25T02:59:22.684Z,77461.38
2019-06-25T03:01:48.560Z,77461.38
2019-06-25T03:04:14.451Z,77463.38
2019-06-25T03:06:40.324Z,77465.38
2019-06-25T03:09:06.191Z,77467.39
2019-06-25T03:11:32.099Z,77468.39
2019-06-25T03:13:58.190Z,77468.39
2019-06-25T03:16:24.433Z,77472.39
2019-06-25T03:18:50.268Z,77476.39
2019-06-25T03:21:16.162Z,77474.39
2019-06-25T03:23:42.071Z,77477.39
2019-06-25T03:26:07.967Z,77480.40
2019-06-25T03:28:33.984Z,77474.39
2019-06-25T03:30:59.892Z,77479.40
2019-06-25T03:33:25.751Z,77480.40
2019-06-25T03:35:51.600Z,77480.40
2019-06-25T03:38:17.515Z,77481.40
2019-06-25T03:40:43.457Z,77480.40
2019-06-25T03:43:09.319Z,77481.40
2019-06-25T03:45:35.187Z,77478.40
2019-06-25T03:48:01.048Z,77480.40
2019-06-25T03:50:27.263Z,77484.41
2019-06-25T03:52:53.131Z,77479.40
2019-06-25T03:55:18.997Z,77479.40
2019-06-25T03:57:44.869Z,77479.40
2019-06-25T04:00:10.732Z,77475.39
2019-06-25T04:02:36.607Z,77481.40
2019-06-25T04:05:04.185Z,77479.40
2019-06-25T04:07:30.062Z,77484.41
2019-06-25T04:09:56.316Z,77486.41
2019-06-25T04:12:22.440Z,77484.41
2019-06-25T04:14:48.272Z,77485.41
2019-06-25T04:17:14.131Z,77486.41
2019-06-25T04:19:40.458Z,77486.41
2019-06-25T04:22:06.804Z,77489.41
2019-06-25T04:24:32.690Z,77491.41
2019-06-25T04:26:58.866Z,77489.41
2019-06-25T04:29:28.073Z,77491.41
2019-06-25T04:31:55.752Z,77495.41
2019-06-25T04:34:21.584Z,77496.42
2019-06-25T04:36:47.455Z,77500.42
2019-06-25T04:39:13.324Z,77501.42
2019-06-25T04:41:39.181Z,77500.42
2019-06-25T04:44:05.224Z,77501.42
2019-06-25T04:46:31.109Z,77506.42
2019-06-25T04:48:56.981Z,77506.42
2019-06-25T04:51:22.905Z,77505.42
2019-06-25T04:53:48.785Z,77506.42
2019-06-25T04:56:14.671Z,77505.42
2019-06-25T04:58:40.545Z,77508.43
2019-06-25T05:01:06.415Z,77508.43
2019-06-25T05:03:32.280Z,77513.44
2019-06-25T05:05:58.147Z,77513.44
2019-06-25T05:08:26.072Z,77515.44
2019-06-25T05:10:51.933Z,77509.43
2019-06-25T05:13:17.920Z,77507.42
2019-06-25T05:15:43.986Z,77515.44
2019-06-25T05:18:10.767Z,77513.44
2019-06-25T05:20:36.716Z,77514.44
2019-06-25T05:23:02.640Z,77511.43
2019-06-25T05:25:28.524Z,77514.44
2019-06-25T05:27:56.428Z,77517.44
2019-06-25T05:30:22.307Z,77509.43
2019-06-25T05:32:48.189Z,77511.43
2019-06-25T05:35:24.186Z,77506.42
2019-06-25T05:37:48.193Z,77503.42
2019-06-25T05:40:14.066Z,77496.42
2019-06-25T05:42:40.123Z,77483.41
2019-06-25T05:45:06.381Z,77484.41
2019-06-25T05:47:32.267Z,77475.39
2019-06-25T05:49:58.137Z,77467.39
2019-06-25T05:52:24.913Z,77463.38
2019-06-25T05:54:50.767Z,77463.38
2019-06-25T05:57:17.248Z,77455.38
2019-06-25T05:59:43.119Z,77457.38
2019-06-25T06:02:09.209Z,77458.38
2019-06-25T06:04:35.091Z,77456.38
2019-06-25T06:07:01.021Z,77460.38
2019-06-25T06:09:27.358Z,77459.38
2019-06-25T06:11:53.335Z,77453.38
2019-06-25T06:14:19.212Z,77457.38
2019-06-25T06:16:45.270Z,77461.38
2019-06-25T06:19:11.221Z,77460.38
2019-06-25T06:21:37.143Z,77465.38
2019-06-25T06:24:03.042Z,77463.38
2019-06-25T06:26:28.918Z,77465.38
2019-06-25T06:28:58.007Z,77465.38
2019-06-25T06:31:23.857Z,77469.39
2019-06-25T06:33:50.633Z,77466.39
2019-06-25T06:36:16.616Z,77470.39
2019-06-25T06:38:42.530Z,77463.38
2019-06-25T06:41:08.700Z,77462.38
2019-06-25T06:43:34.784Z,77463.38
2019-06-25T06:46:00.624Z,77467.39
2019-06-25T06:48:26.481Z,77465.38
2019-06-25T06:50:52.391Z,77460.38
2019-06-25T06:53:18.286Z,77462.38
2019-06-25T06:55:44.149Z,77464.38
2019-06-25T06:58:10.384Z,77466.39
2019-06-25T07:00:36.325Z,77462.38
2019-06-25T07:03:02.191Z,77465.38
2019-06-25T07:05:28.396Z,77464.38
2019-06-25T07:07:56.404Z,77464.38
2019-06-25T07:10:22.361Z,77466.39
2019-06-25T07:12:48.309Z,77465.38
2019-06-25T07:15:14.600Z,77466.39
2019-06-25T07:17:40.477Z,77463.38
2019-06-25T07:20:06.649Z,77468.39
2019-06-25T07:22:32.596Z,77468.39
2019-06-25T07:24:58.478Z,77467.39
2019-06-25T07:27:27.335Z,77467.39
2019-06-25T07:29:54.799Z,77470.39
2019-06-25T07:32:20.746Z,77467.39
2019-06-25T07:34:46.608Z,77467.39
2019-06-25T07:37:12.692Z,77461.38
2019-06-25T07:39:38.556Z,77463.38
2019-06-25T07:42:04.752Z,77463.38
2019-06-25T07:44:30.639Z,77460.38
2019-06-25T07:46:56.517Z,77459.38
2019-06-25T07:49:22.398Z,77462.38
2019-06-25T07:51:48.277Z,77459.38
2019-06-25T07:54:14.138Z,77458.38
2019-06-25T07:56:40.012Z,77458.38
2019-06-25T07:59:05.879Z,77458.38
2019-06-25T08:01:31.762Z,77452.38
2019-06-25T08:03:57.709Z,77455.38
2019-06-25T08:06:23.586Z,77453.38
2019-06-25T08:08:49.735Z,77456.38
2019-06-25T08:11:15.636Z,77449.37
2019-06-25T08:13:41.516Z,77443.36
2019-06-25T08:16:07.377Z,77447.37
2019-06-25T08:18:33.395Z,77447.37
2019-06-25T08:20:59.301Z,77447.37
2019-06-25T08:23:25.243Z,77443.36
2019-06-25T08:25:51.388Z,77444.36
2019-06-25T08:28:17.342Z,77441.36
2019-06-25T08:30:43.235Z,77441.36
2019-06-25T08:33:09.163Z,77440.36
2019-06-25T08:35:35.026Z,77434.36
2019-06-25T08:38:00.900Z,77440.36
2019-06-25T08:40:26.805Z,77432.35
2019-06-25T08:42:52.691Z,77435.36
2019-06-25T08:45:18.877Z,77429.35
2019-06-25T08:47:44.760Z,77428.34
2019-06-25T08:50:10.685Z,77432.35
2019-06-25T08:52:36.621Z,77435.36
2019-06-25T08:55:03.463Z,77436.36
2019-06-25T08:57:29.321Z,77434.36
2019-06-25T08:59:55.213Z,77435.36
2019-06-25T09:02:21.107Z,77434.36
2019-06-25T09:04:57.622Z,77429.35
2019-06-25T09:07:14.692Z,77434.36
2019-06-25T09:09:40.654Z,77432.35
2019-06-25T09:12:06.583Z,77436.36
2019-06-25T09:14:32.459Z,77429.35
2019-06-25T09:16:58.638Z,77428.34
2019-06-25T09:19:26.471Z,77426.34
2019-06-25T09:21:52.327Z,77429.35
2019-06-25T09:24:18.196Z,77432.35
2019-06-25T09:26:44.473Z,77428.34
2019-06-25T09:29:10.343Z,77428.34
2019-06-25T09:31:36.275Z,77423.34
2019-06-25T09:34:02.175Z,77429.35
2019-06-25T09:36:28.070Z,77426.34
2019-06-25T09:38:55.345Z,77424.34
2019-06-25T09:41:21.435Z,77422.34
2019-06-25T09:43:59.671Z,77424.34
2019-06-25T09:46:14.911Z,77424.34
2019-06-25T09:48:40.771Z,77419.34
2019-06-25T09:51:06.660Z,77419.34
2019-06-25T09:53:32.832Z,77421.34
2019-06-25T09:55:59.087Z,77420.34
2019-06-25T09:58:25.002Z,77419.34
2019-06-25T10:00:52.788Z,77409.33
2019-06-25T10:03:18.658Z,77413.34
2019-06-25T10:05:44.571Z,77417.34
2019-06-25T10:08:10.430Z,77406.33
2019-06-25T10:10:36.323Z,77407.33
2019-06-25T10:13:02.198Z,77413.34
2019-06-25T10:15:28.075Z,77409.33
2019-06-25T10:17:55.351Z,77406.33
2019-06-25T10:20:21.208Z,77415.34
2019-06-25T10:22:47.091Z,77413.34
2019-06-25T10:25:12.973Z,77409.33
2019-06-25T10:27:39.167Z,77415.34
2019-06-25T10:30:05.284Z,77419.34
2019-06-25T10:32:31.198Z,77408.33
2019-06-25T10:34:57.067Z,77412.34
2019-06-25T10:37:22.929Z,77413.34
2019-06-25T10:39:48.811Z,77410.33
2019-06-25T10:42:14.714Z,77413.34
2019-06-25T10:44:40.567Z,77413.34
2019-06-25T10:47:06.436Z,77418.34
2019-06-25T10:49:32.325Z,77417.34
2019-06-25T10:51:58.465Z,77416.34
2019-06-25T10:54:27.236Z,77409.33
2019-06-25T10:56:53.454Z,77410.33
2019-06-25T10:59:19.376Z,77406.33
2019-06-25T11:01:45.267Z,77407.33
2019-06-25T11:04:11.397Z,77405.33
2019-06-25T11:06:37.265Z,77405.33
2019-06-25T11:09:04.807Z,77401.33
2019-06-25T11:11:30.963Z,77399.32
2019-06-25T11:14:07.647Z,77393.31
2019-06-25T11:16:26.404Z,77395.31
2019-06-25T11:18:52.561Z,77395.31
2019-06-25T11:21:18.494Z,77394.31
2019-06-25T11:23:44.353Z,77388.31
2019-06-25T11:26:22.570Z,77387.31
2019-06-25T11:28:38.031Z,77392.31
2019-06-25T11:31:03.922Z,77392.31
2019-06-25T11:33:29.796Z,77396.32
2019-06-25T11:35:55.687Z,77395.31
2019-06-25T11:38:21.557Z,77390.31
2019-06-25T11:40:47.465Z,77379.30
2019-06-25T11:43:13.320Z,77382.30
2019-06-25T11:45:39.211Z,77384.30
2019-06-25T11:48:05.426Z,77382.30
2019-06-25T11:50:31.319Z,77381.30
2019-06-25T11:52:57.208Z,77381.30
2019-06-25T11:55:23.113Z,77374.30
2019-06-25T11:57:49.002Z,77379.30
2019-06-25T12:00:15.006Z,77376.30
2019-06-25T12:02:40.860Z,77375.30
2019-06-25T12:05:06.786Z,77375.30
2019-06-25T12:07:32.799Z,77376.30
2019-06-25T12:09:58.712Z,77375.30
2019-06-25T12:12:27.724Z,77373.30
2019-06-25T12:14:55.881Z,77369.30
2019-06-25T12:17:22.033Z,77367.29
2019-06-25T12:19:49.100Z,77367.29
2019-06-25T12:22:15.390Z,77360.28
2019-06-25T12:24:41.599Z,77364.28
2019-06-25T12:27:07.487Z,77363.28
2019-06-25T12:29:33.630Z,77364.28
2019-06-25T12:31:59.524Z,77358.28
2019-06-25T12:34:25.397Z,77357.28
2019-06-25T12:36:51.274Z,77359.28
2019-06-25T12:39:17.222Z,77355.28
2019-06-25T12:41:43.129Z,77359.28
2019-06-25T12:44:08.991Z,77355.28
2019-06-25T12:46:34.871Z,77356.28
2019-06-25T12:49:00.755Z,77358.28
2019-06-25T12:51:26.896Z,77355.28
2019-06-25T12:53:53.120Z,77354.28
2019-06-25T12:56:19.003Z,77353.28
2019-06-25T12:58:44.910Z,77356.28
2019-06-25T13:01:10.791Z,77355.28
2019-06-25T13:03:36.674Z,77350.27
2019-06-25T13:06:02.581Z,77347.27
2019-06-25T13:08:28.450Z,77346.27
2019-06-25T13:10:56.373Z,77343.27
2019-06-25T13:13:22.264Z,77339.27
2019-06-25T13:15:48.181Z,77341.27
2019-06-25T13:18:18.103Z,77342.27
2019-06-25T13:20:42.262Z,77341.27
2019-06-25T13:23:08.318Z,77335.27
2019-06-25T13:25:34.495Z,77332.26
2019-06-25T13:28:00.362Z,77332.26
2019-06-25T13:30:26.239Z,77329.25
2019-06-25T13:32:52.201Z,77331.26
2019-06-25T13:35:18.178Z,77326.25
2019-06-25T13:37:44.220Z,77322.25
2019-06-25T13:40:10.408Z,77324.25
2019-06-25T13:42:36.349Z,77324.25
2019-06-25T13:45:03.193Z,77322.25
2019-06-25T13:47:29.084Z,77318.25
2019-06-25T13:49:54.957Z,77318.25
2019-06-25T13:52:20.829Z,77320.25
2019-06-25T13:54:46.839Z,77312.23
2019-06-25T13:57:12.704Z,77318.25
2019-06-25T13:59:38.634Z,77309.23
2019-06-25T14:02:04.565Z,77309.23
2019-06-25T14:04:30.488Z,77309.23
2019-06-25T14:06:56.424Z,77304.23
2019-06-25T14:09:22.298Z,77305.23
2019-06-25T14:11:48.237Z,77305.23
2019-06-25T14:14:14.100Z,77309.23
2019-06-25T14:16:39.998Z,77302.23
2019-06-25T14:19:06.100Z,77303.23
2019-06-25T14:21:34.199Z,77305.23
2019-06-25T14:23:59.867Z,77307.23
2019-06-25T14:26:26.033Z,77302.23
2019-06-25T14:28:51.978Z,77302.23
2019-06-25T14:31:17.875Z,77295.22
2019-06-25T14:33:43.731Z,77296.22
2019-06-25T14:36:09.596Z,77297.23
2019-06-25T14:38:35.797Z,77297.23
2019-06-25T14:41:01.776Z,77294.22
2019-06-25T14:43:28.027Z,77293.22
2019-06-25T14:45:55.635Z,77289.22
2019-06-25T14:48:21.540Z,77287.22
2019-06-25T14:50:47.438Z,77283.21
2019-06-25T14:53:13.307Z,77279.20
2019-06-25T14:55:39.253Z,77271.20
2019-06-25T14:58:05.146Z,77274.20
2019-06-25T15:00:31.041Z,77277.20
2019-06-25T15:02:58.988Z,77276.20
2019-06-25T15:05:27.608Z,77273.20
2019-06-25T15:07:53.563Z,77269.20
2019-06-25T15:10:19.646Z,77267.20
2019-06-25T15:12:45.540Z,77271.20
2019-06-25T15:15:11.426Z,77269.20
2019-06-25T15:17:37.314Z,77264.19
2019-06-25T15:20:03.636Z,77268.20
2019-06-25T15:22:29.478Z,77266.20
2019-06-25T15:24:55.333Z,77264.19
2019-06-25T15:27:21.234Z,77266.20
2019-06-25T15:29:47.096Z,77260.19
2019-06-25T15:32:13.018Z,77262.19
2019-06-25T15:34:38.907Z,77258.19
2019-06-25T15:37:04.771Z,77256.19
2019-06-25T15:39:30.683Z,77254.19
2019-06-25T15:41:56.587Z,77250.18
2019-06-25T15:44:22.803Z,77254.19
2019-06-25T15:46:48.664Z,77254.19
2019-06-25T15:49:14.566Z,77251.18
2019-06-25T15:51:40.457Z,77245.17
2019-06-25T15:54:06.315Z,77247.17
2019-06-25T15:56:32.212Z,77249.18
2019-06-25T15:58:58.093Z,77240.17
2019-06-25T16:01:26.562Z,77240.17
2019-06-25T16:03:52.723Z,77244.17
2019-06-25T16:06:18.901Z,77243.17
2019-06-25T16:08:44.836Z,77239.17
2019-06-25T16:11:10.721Z,77241.17
2019-06-25T16:13:36.622Z,77241.17
2019-06-25T16:16:02.597Z,77247.17
2019-06-25T16:18:28.482Z,77244.17
2019-06-25T16:20:56.443Z,77245.17
2019-06-25T16:23:22.327Z,77244.17
2019-06-25T16:25:49.262Z,77243.17
2019-06-25T16:28:15.237Z,77245.17
2019-06-25T16:30:41.126Z,77247.17
2019-06-25T16:33:07.024Z,77247.17
2019-06-25T16:35:32.885Z,77247.17
2019-06-25T16:37:58.784Z,77245.17
2019-06-25T16:40:27.689Z,77245.17
2019-06-25T16:42:53.634Z,77241.17
2019-06-25T16:45:19.516Z,77243.17
2019-06-25T16:47:45.414Z,77242.17
2019-06-25T16:50:11.659Z,77239.17
2019-06-25T16:52:37.525Z,77240.17
2019-06-25T16:55:04.008Z,77239.17
2019-06-25T16:57:29.890Z,77239.17
2019-06-25T16:59:55.778Z,77238.17
2019-06-25T17:02:33.407Z,77239.17
2019-06-25T17:04:49.360Z,77243.17
2019-06-25T17:07:15.216Z,77241.17
2019-06-25T17:09:41.105Z,77243.17
2019-06-25T17:12:07.009Z,77243.17
2019-06-25T17:14:32.877Z,77243.17
2019-06-25T17:16:58.835Z,77244.17
2019-06-25T17:19:27.877Z,77246.17
2019-06-25T17:21:53.775Z,77247.17
2019-06-25T17:24:19.680Z,77248.18
2019-06-25T17:26:45.586Z,77247.17
2019-06-25T17:29:11.479Z,77249.18
2019-06-25T17:31:37.600Z,77250.18
2019-06-25T17:34:03.490Z,77248.18
2019-06-25T17:36:29.376Z,77249.18
2019-06-25T17:38:55.243Z,77249.18
2019-06-25T17:41:21.176Z,77247.17
2019-06-25T17:43:47.635Z,77249.18
2019-06-25T17:46:13.702Z,77249.18
2019-06-25T17:48:39.662Z,77245.17
2019-06-25T17:51:05.602Z,77246.17
2019-06-25T17:53:36.425Z,77249.18
2019-06-25T17:55:59.470Z,77249.18
2019-06-25T17:58:25.395Z,77247.17
2019-06-25T18:00:51.289Z,77250.18
2019-06-25T18:03:17.214Z,77251.18
2019-06-25T18:05:43.405Z,77247.17
2019-06-25T18:08:09.329Z,77245.17
2019-06-25T18:10:35.223Z,77241.17
2019-06-25T18:13:01.132Z,77236.17
2019-06-25T18:15:27.003Z,77224.16
2019-06-25T18:17:52.854Z,77217.16
2019-06-25T18:20:18.715Z,77217.16
2019-06-25T18:22:44.956Z,77201.14
2019-06-25T18:25:10.854Z,77199.14
2019-06-25T18:27:36.721Z,77204.14
2019-06-25T18:30:03.533Z,77199.14
2019-06-25T18:32:29.380Z,77201.14
2019-06-25T18:34:55.303Z,77199.14
2019-06-25T18:37:21.186Z,77195.13
2019-06-25T18:39:47.139Z,77201.14
2019-06-25T18:42:13.033Z,77200.14
2019-06-25T18:44:38.998Z,77201.14
2019-06-25T18:47:05.134Z,77205.14
2019-06-25T18:49:31.294Z,77201.14
2019-06-25T18:51:57.173Z,77201.14
2019-06-25T18:54:23.033Z,77199.14
2019-06-25T18:56:48.905Z,77200.14
2019-06-25T18:59:14.760Z,77206.14
2019-06-25T19:01:40.630Z,77205.14
2019-06-25T19:04:06.496Z,77204.14
2019-06-25T19:06:32.368Z,77205.14
2019-06-25T19:08:58.235Z,77203.14
2019-06-25T19:11:26.215Z,77207.14
2019-06-25T19:13:52.230Z,77212.15
2019-06-25T19:16:18.197Z,77207.14
2019-06-25T19:18:44.063Z,77210.14
2019-06-25T19:21:09.955Z,77216.15
2019-06-25T19:23:36.149Z,77216.15
2019-06-25T19:26:02.236Z,77217.16
2019-06-25T19:28:28.089Z,77215.15
2019-06-25T19:30:56.537Z,77216.15
2019-06-25T19:33:22.405Z,77219.16
2019-06-25T19:36:03.926Z,77218.16
2019-06-25T19:38:16.275Z,77222.16
2019-06-25T19:40:55.011Z,77223.16
2019-06-25T19:43:10.383Z,77223.16
2019-06-25T19:45:37.008Z,77222.16
2019-06-25T19:48:03.771Z,77222.16
2019-06-25T19:50:30.259Z,77224.16
2019-06-25T19:52:56.776Z,77223.16
2019-06-25T19:55:22.980Z,77233.16
2019-06-25T19:57:49.630Z,77230.16
2019-06-25T20:00:16.152Z,77225.16
2019-06-25T20:02:42.556Z,77227.16
2019-06-25T20:05:09.199Z,77228.16
2019-06-25T20:07:35.975Z,77225.16
2019-06-25T20:10:02.965Z,77230.16
2019-06-25T20:12:29.258Z,77232.16
2019-06-25T20:14:55.588Z,77227.16
2019-06-25T20:17:21.676Z,77230.16
2019-06-25T20:19:49.178Z,77221.16
2019-06-25T20:22:16.662Z,77224.16
2019-06-25T20:24:44.145Z,77225.16
2019-06-25T20:27:12.671Z,77221.16
2019-06-25T20:29:40.225Z,77224.16
2019-06-25T20:32:08.398Z,77224.16
2019-06-25T20:34:36.168Z,77220.16
2019-06-25T20:37:04.221Z,77220.16
2019-06-25T20:39:32.567Z,77225.16
2019-06-25T20:41:59.594Z,77226.16
2019-06-25T20:44:26.683Z,77227.16
2019-06-25T20:46:55.690Z,77214.15
2019-06-25T20:49:23.247Z,77213.15
2019-06-25T20:51:51.474Z,77215.15
2019-06-25T20:54:19.712Z,77213.15
2019-06-25T20:56:46.494Z,77219.16
2019-06-25T20:59:12.744Z,77221.16
2019-06-25T21:01:38.708Z,77220.16
2019-06-25T21:04:04.656Z,77223.16
2019-06-25T21:06:30.528Z,77224.16
2019-06-25T21:08:56.388Z,77224.16
2019-06-25T21:11:29.551Z,77227.16
2019-06-25T21:13:50.148Z,77225.16
2019-06-25T21:16:16.018Z,77225.16
2019-06-25T21:18:41.921Z,77224.16
2019-06-25T21:21:07.812Z,77225.16
2019-06-25T21:23:33.683Z,77227.16
2019-06-25T21:25:59.816Z,77231.16
2019-06-25T21:28:25.825Z,77224.16
2019-06-25T21:30:51.739Z,77227.16
2019-06-25T21:33:17.733Z,77227.16
2019-06-25T21:35:44.623Z,77226.16
2019-06-25T21:38:10.528Z,77225.16
2019-06-25T21:40:36.480Z,77226.16
2019-06-25T21:43:02.773Z,77227.16
2019-06-25T21:45:28.712Z,77235.17
2019-06-25T21:47:56.539Z,77236.17
2019-06-25T21:50:22.470Z,77236.17
2019-06-25T21:52:48.562Z,77239.17
2019-06-25T21:55:17.480Z,77243.17
2019-06-25T21:57:42.408Z,77243.17
2019-06-25T22:00:13.439Z,77246.17
2019-06-25T22:02:47.801Z,77243.17
2019-06-25T22:05:13.770Z,77247.17
2019-06-25T22:07:39.691Z,77243.17
2019-06-25T22:10:05.970Z,77242.17
2019-06-25T22:12:31.831Z,77243.17
2019-06-25T22:14:57.813Z,77243.17
2019-06-25T22:17:25.994Z,77243.17
2019-06-25T22:19:51.617Z,77239.17
2019-06-25T22:22:20.168Z,77236.17
2019-06-25T22:24:45.252Z,77241.17
2019-06-25T22:27:11.129Z,77241.17
2019-06-25T22:29:37.004Z,77237.17
2019-06-25T22:32:02.866Z,77232.16
2019-06-25T22:34:28.731Z,77238.17
2019-06-25T22:36:56.533Z,77235.17
2019-06-25T22:39:22.401Z,77227.16
2019-06-25T22:41:48.295Z,77237.17
2019-06-25T22:44:14.201Z,77223.16
2019-06-25T22:46:40.067Z,77223.16
2019-06-25T22:49:06.222Z,77220.16
2019-06-25T22:51:32.127Z,77216.15
2019-06-25T22:53:57.968Z,77220.16
2019-06-25T22:56:25.130Z,77223.16
2019-06-25T22:58:51.023Z,77218.16
2019-06-25T23:01:17.185Z,77224.16
2019-06-25T23:03:43.361Z,77223.16
2019-06-25T23:06:09.247Z,77227.16
2019-06-25T23:08:35.135Z,77232.16
2019-06-25T23:11:01.020Z,77229.16
2019-06-25T23:13:26.958Z,77225.16
2019-06-25T23:15:52.920Z,77229.16
2019-06-25T23:18:18.786Z,77228.16
2019-06-25T23:20:44.755Z,77229.16
2019-06-25T23:23:10.670Z,77219.16
2019-06-25T23:25:36.667Z,77221.16
2019-06-25T23:28:02.577Z,77219.16
2019-06-25T23:30:28.459Z,77224.16
2019-06-25T23:32:56.255Z,77222.16
2019-06-25T23:35:22.126Z,77224.16
2019-06-25T23:37:48.050Z,77217.16
2019-06-25T23:40:13.913Z,77214.15
2019-06-25T23:42:39.778Z,77216.15
2019-06-25T23:45:05.820Z,77216.15
2019-06-25T23:47:31.761Z,77214.15
2019-06-25T23:49:57.677Z,77213.15
2019-06-25T23:52:23.537Z,77215.15
2019-06-25T23:54:49.466Z,77203.14
2019-06-25T23:57:15.341Z,77205.14
2019-06-25T23:59:41.353Z,77205.14
